sensor_id;sensor_type;location;lat;lon;timestamp;P1;durP1;ratioP1;P2;durP2;ratioP2
57023;SDS011;42916;54.346;18.562;2023-01-16T00:01:42;2.30;;;1.00;;
57023;SDS011;42916;54.346;18.562;2023-01-16T00:04:09;2.00;;;1.10;;
57023;SDS011;42916;54.346;18.562;2023-01-16T00:06:35;3.40;;;1.20;;
57023;SDS011;42916;54.346;18.562;2023-01-16T00:09:03;2.90;;;1.40;;
57023;SDS011;42916;54.346;18.562;2023-01-16T00:11:30;3.10;;;1.00;;
57023;SDS011;42916;54.346;18.562;2023-01-16T00:13:57;3.30;;;1.20;;
57023;SDS011;42916;54.346;18.562;2023-01-16T00:16:26;4.70;;;1.20;;
57023;SDS011;42916;54.346;18.562;2023-01-16T00:18:53;3.00;;;1.00;;
57023;SDS011;42916;54.346;18.562;2023-01-16T00:21:21;3.60;;;1.20;;
57023;SDS011;42916;54.346;18.562;2023-01-16T00:23:53;2.20;;;0.90;;
57023;SDS011;42916;54.346;18.562;2023-01-16T00:26:21;1.90;;;0.90;;
57023;SDS011;42916;54.346;18.562;2023-01-16T00:28:49;5.80;;;1.10;;
57023;SDS011;42916;54.346;18.562;2023-01-16T00:31:16;2.70;;;1.20;;
57023;SDS011;42916;54.346;18.562;2023-01-16T00:33:43;2.00;;;0.80;;
57023;SDS011;42916;54.346;18.562;2023-01-16T00:36:10;2.10;;;0.80;;
57023;SDS011;42916;54.346;18.562;2023-01-16T00:38:38;1.60;;;0.80;;
57023;SDS011;42916;54.346;18.562;2023-01-16T00:41:05;2.10;;;0.90;;
57023;SDS011;42916;54.346;18.562;2023-01-16T00:43:32;2.50;;;1.00;;
57023;SDS011;42916;54.346;18.562;2023-01-16T00:45:59;3.60;;;1.10;;
57023;SDS011;42916;54.346;18.562;2023-01-16T00:48:26;1.60;;;0.90;;
57023;SDS011;42916;54.346;18.562;2023-01-16T00:50:56;1.60;;;0.90;;
57023;SDS011;42916;54.346;18.562;2023-01-16T00:53:22;3.00;;;1.00;;
57023;SDS011;42916;54.346;18.562;2023-01-16T00:55:52;2.10;;;1.00;;
57023;SDS011;42916;54.346;18.562;2023-01-16T00:58:19;2.70;;;1.20;;
57023;SDS011;42916;54.346;18.562;2023-01-16T01:00:46;3.90;;;1.00;;
57023;SDS011;42916;54.346;18.562;2023-01-16T01:03:15;2.40;;;0.90;;
57023;SDS011;42916;54.346;18.562;2023-01-16T01:05:45;2.90;;;0.80;;
57023;SDS011;42916;54.346;18.562;2023-01-16T01:08:18;4.70;;;1.30;;
57023;SDS011;42916;54.346;18.562;2023-01-16T01:10:45;1.80;;;1.10;;
57023;SDS011;42916;54.346;18.562;2023-01-16T01:13:12;3.70;;;1.10;;
57023;SDS011;42916;54.346;18.562;2023-01-16T01:15:39;2.90;;;1.00;;
57023;SDS011;42916;54.346;18.562;2023-01-16T01:18:06;4.10;;;1.50;;
57023;SDS011;42916;54.346;18.562;2023-01-16T01:20:33;6.00;;;1.30;;
57023;SDS011;42916;54.346;18.562;2023-01-16T01:22:59;2.50;;;1.00;;
57023;SDS011;42916;54.346;18.562;2023-01-16T01:25:26;3.10;;;1.00;;
57023;SDS011;42916;54.346;18.562;2023-01-16T01:27:53;2.00;;;0.80;;
57023;SDS011;42916;54.346;18.562;2023-01-16T01:30:20;3.10;;;0.90;;
57023;SDS011;42916;54.346;18.562;2023-01-16T01:32:46;2.80;;;1.00;;
57023;SDS011;42916;54.346;18.562;2023-01-16T01:35:13;3.30;;;1.00;;
57023;SDS011;42916;54.346;18.562;2023-01-16T01:37:40;2.90;;;1.00;;
57023;SDS011;42916;54.346;18.562;2023-01-16T01:40:07;2.80;;;0.80;;
57023;SDS011;42916;54.346;18.562;2023-01-16T01:42:36;2.00;;;1.00;;
57023;SDS011;42916;54.346;18.562;2023-01-16T01:47:47;3.70;;;1.20;;
57023;SDS011;42916;54.346;18.562;2023-01-16T01:50:23;2.40;;;0.90;;
57023;SDS011;42916;54.346;18.562;2023-01-16T01:53:02;3.60;;;1.20;;
57023;SDS011;42916;54.346;18.562;2023-01-16T01:55:35;3.60;;;0.90;;
57023;SDS011;42916;54.346;18.562;2023-01-16T02:00:31;4.00;;;0.90;;
57023;SDS011;42916;54.346;18.562;2023-01-16T02:03:00;2.30;;;1.00;;
57023;SDS011;42916;54.346;18.562;2023-01-16T02:05:37;3.20;;;0.90;;
57023;SDS011;42916;54.346;18.562;2023-01-16T02:08:16;1.80;;;0.80;;
57023;SDS011;42916;54.346;18.562;2023-01-16T02:13:15;2.20;;;0.80;;
57023;SDS011;42916;54.346;18.562;2023-01-16T02:15:42;3.40;;;0.90;;
57023;SDS011;42916;54.346;18.562;2023-01-16T02:18:28;2.60;;;0.90;;
57023;SDS011;42916;54.346;18.562;2023-01-16T02:24:32;5.20;;;1.60;;
57023;SDS011;42916;54.346;18.562;2023-01-16T02:30:02;2.90;;;1.10;;
57023;SDS011;42916;54.346;18.562;2023-01-16T02:38:13;2.20;;;0.90;;
57023;SDS011;42916;54.346;18.562;2023-01-16T02:49:03;1.70;;;1.10;;
57023;SDS011;42916;54.346;18.562;2023-01-16T02:57:27;2.00;;;1.10;;
57023;SDS011;42916;54.346;18.562;2023-01-16T03:00:00;1.70;;;1.00;;
57023;SDS011;42916;54.346;18.562;2023-01-16T03:02:30;2.50;;;1.00;;
57023;SDS011;42916;54.346;18.562;2023-01-16T03:04:56;2.00;;;0.90;;
57023;SDS011;42916;54.346;18.562;2023-01-16T03:07:45;3.10;;;0.90;;
57023;SDS011;42916;54.346;18.562;2023-01-16T03:16:01;2.50;;;1.00;;
57023;SDS011;42916;54.346;18.562;2023-01-16T03:21:12;3.10;;;1.30;;
57023;SDS011;42916;54.346;18.562;2023-01-16T03:26:16;5.30;;;1.40;;
57023;SDS011;42916;54.346;18.562;2023-01-16T03:28:55;2.10;;;0.90;;
57023;SDS011;42916;54.346;18.562;2023-01-16T03:31:37;1.90;;;1.10;;
57023;SDS011;42916;54.346;18.562;2023-01-16T03:34:30;3.90;;;1.20;;
57023;SDS011;42916;54.346;18.562;2023-01-16T03:37:22;2.60;;;1.10;;
57023;SDS011;42916;54.346;18.562;2023-01-16T03:39:56;3.70;;;1.50;;
57023;SDS011;42916;54.346;18.562;2023-01-16T03:45:35;2.10;;;1.40;;
57023;SDS011;42916;54.346;18.562;2023-01-16T03:48:10;2.60;;;1.50;;
57023;SDS011;42916;54.346;18.562;2023-01-16T03:50:44;5.50;;;1.30;;
57023;SDS011;42916;54.346;18.562;2023-01-16T03:53:16;3.50;;;1.30;;
57023;SDS011;42916;54.346;18.562;2023-01-16T03:58:33;3.00;;;1.00;;
57023;SDS011;42916;54.346;18.562;2023-01-16T04:03:57;2.20;;;1.40;;
57023;SDS011;42916;54.346;18.562;2023-01-16T04:06:32;5.30;;;1.70;;
57023;SDS011;42916;54.346;18.562;2023-01-16T04:09:13;6.00;;;2.30;;
57023;SDS011;42916;54.346;18.562;2023-01-16T04:11:46;6.00;;;1.50;;
57023;SDS011;42916;54.346;18.562;2023-01-16T04:14:15;2.20;;;1.10;;
57023;SDS011;42916;54.346;18.562;2023-01-16T04:16:44;3.20;;;1.10;;
57023;SDS011;42916;54.346;18.562;2023-01-16T04:19:12;3.00;;;1.20;;
57023;SDS011;42916;54.346;18.562;2023-01-16T04:21:44;2.70;;;1.40;;
57023;SDS011;42916;54.346;18.562;2023-01-16T04:24:13;2.90;;;1.40;;
57023;SDS011;42916;54.346;18.562;2023-01-16T04:26:41;3.10;;;1.50;;
57023;SDS011;42916;54.346;18.562;2023-01-16T04:29:08;1.30;;;1.10;;
57023;SDS011;42916;54.346;18.562;2023-01-16T04:31:34;3.30;;;1.20;;
57023;SDS011;42916;54.346;18.562;2023-01-16T04:34:01;1.40;;;0.90;;
57023;SDS011;42916;54.346;18.562;2023-01-16T04:36:28;3.40;;;1.10;;
57023;SDS011;42916;54.346;18.562;2023-01-16T04:38:55;3.30;;;1.10;;
57023;SDS011;42916;54.346;18.562;2023-01-16T04:41:22;2.60;;;1.20;;
57023;SDS011;42916;54.346;18.562;2023-01-16T04:44:05;1.80;;;1.10;;
57023;SDS011;42916;54.346;18.562;2023-01-16T04:46:34;5.70;;;1.10;;
57023;SDS011;42916;54.346;18.562;2023-01-16T04:49:03;6.80;;;1.40;;
57023;SDS011;42916;54.346;18.562;2023-01-16T04:51:31;3.80;;;1.20;;
57023;SDS011;42916;54.346;18.562;2023-01-16T04:53:58;4.80;;;1.10;;
57023;SDS011;42916;54.346;18.562;2023-01-16T04:56:25;3.70;;;1.40;;
57023;SDS011;42916;54.346;18.562;2023-01-16T04:58:52;4.80;;;1.80;;
57023;SDS011;42916;54.346;18.562;2023-01-16T05:01:19;2.70;;;1.30;;
57023;SDS011;42916;54.346;18.562;2023-01-16T05:03:47;2.10;;;1.10;;
57023;SDS011;42916;54.346;18.562;2023-01-16T05:06:14;3.10;;;1.30;;
57023;SDS011;42916;54.346;18.562;2023-01-16T05:08:41;3.30;;;1.10;;
57023;SDS011;42916;54.346;18.562;2023-01-16T05:11:11;2.20;;;1.30;;
57023;SDS011;42916;54.346;18.562;2023-01-16T05:13:37;3.20;;;1.40;;
57023;SDS011;42916;54.346;18.562;2023-01-16T05:16:04;2.10;;;1.50;;
57023;SDS011;42916;54.346;18.562;2023-01-16T05:18:32;3.50;;;1.60;;
57023;SDS011;42916;54.346;18.562;2023-01-16T05:20:59;3.80;;;1.70;;
57023;SDS011;42916;54.346;18.562;2023-01-16T05:23:26;4.20;;;1.80;;
57023;SDS011;42916;54.346;18.562;2023-01-16T05:25:53;4.40;;;1.60;;
57023;SDS011;42916;54.346;18.562;2023-01-16T05:28:20;2.90;;;1.50;;
57023;SDS011;42916;54.346;18.562;2023-01-16T05:30:47;5.80;;;1.50;;
57023;SDS011;42916;54.346;18.562;2023-01-16T05:33:14;4.00;;;1.50;;
57023;SDS011;42916;54.346;18.562;2023-01-16T05:35:41;3.10;;;1.60;;
57023;SDS011;42916;54.346;18.562;2023-01-16T05:38:08;3.30;;;1.50;;
57023;SDS011;42916;54.346;18.562;2023-01-16T05:40:35;3.30;;;1.40;;
57023;SDS011;42916;54.346;18.562;2023-01-16T05:43:02;4.10;;;1.40;;
57023;SDS011;42916;54.346;18.562;2023-01-16T05:45:30;3.40;;;1.50;;
57023;SDS011;42916;54.346;18.562;2023-01-16T05:47:57;4.10;;;1.60;;
57023;SDS011;42916;54.346;18.562;2023-01-16T05:50:24;5.60;;;1.50;;
57023;SDS011;42916;54.346;18.562;2023-01-16T05:52:50;3.50;;;1.30;;
57023;SDS011;42916;54.346;18.562;2023-01-16T05:55:17;2.60;;;1.20;;
57023;SDS011;42916;54.346;18.562;2023-01-16T05:57:44;3.90;;;1.50;;
57023;SDS011;42916;54.346;18.562;2023-01-16T06:00:11;1.60;;;1.20;;
57023;SDS011;42916;54.346;18.562;2023-01-16T06:02:38;2.50;;;1.10;;
57023;SDS011;42916;54.346;18.562;2023-01-16T06:05:05;3.60;;;1.60;;
57023;SDS011;42916;54.346;18.562;2023-01-16T06:07:32;4.50;;;1.70;;
57023;SDS011;42916;54.346;18.562;2023-01-16T06:09:59;3.80;;;2.00;;
57023;SDS011;42916;54.346;18.562;2023-01-16T06:12:26;2.90;;;1.20;;
57023;SDS011;42916;54.346;18.562;2023-01-16T06:14:53;3.90;;;1.10;;
57023;SDS011;42916;54.346;18.562;2023-01-16T06:17:20;5.00;;;1.50;;
57023;SDS011;42916;54.346;18.562;2023-01-16T06:19:46;3.40;;;1.20;;
57023;SDS011;42916;54.346;18.562;2023-01-16T06:22:13;1.70;;;1.10;;
57023;SDS011;42916;54.346;18.562;2023-01-16T06:24:57;3.80;;;1.30;;
57023;SDS011;42916;54.346;18.562;2023-01-16T06:27:24;3.50;;;1.30;;
57023;SDS011;42916;54.346;18.562;2023-01-16T06:29:51;4.10;;;2.00;;
57023;SDS011;42916;54.346;18.562;2023-01-16T06:32:17;2.40;;;1.70;;
57023;SDS011;42916;54.346;18.562;2023-01-16T06:34:44;3.00;;;1.40;;
57023;SDS011;42916;54.346;18.562;2023-01-16T06:37:11;3.20;;;1.50;;
57023;SDS011;42916;54.346;18.562;2023-01-16T06:39:39;4.50;;;1.50;;
57023;SDS011;42916;54.346;18.562;2023-01-16T06:42:06;5.60;;;1.70;;
57023;SDS011;42916;54.346;18.562;2023-01-16T06:44:33;3.10;;;1.70;;
57023;SDS011;42916;54.346;18.562;2023-01-16T06:47:00;3.80;;;1.30;;
57023;SDS011;42916;54.346;18.562;2023-01-16T06:49:28;2.40;;;1.50;;
57023;SDS011;42916;54.346;18.562;2023-01-16T06:51:55;3.40;;;1.70;;
57023;SDS011;42916;54.346;18.562;2023-01-16T06:54:21;2.70;;;1.70;;
57023;SDS011;42916;54.346;18.562;2023-01-16T06:56:48;4.20;;;2.20;;
57023;SDS011;42916;54.346;18.562;2023-01-16T06:59:15;2.70;;;1.90;;
57023;SDS011;42916;54.346;18.562;2023-01-16T07:01:42;4.40;;;2.20;;
57023;SDS011;42916;54.346;18.562;2023-01-16T07:04:08;3.00;;;1.70;;
57023;SDS011;42916;54.346;18.562;2023-01-16T07:06:36;6.70;;;2.10;;
57023;SDS011;42916;54.346;18.562;2023-01-16T07:09:04;4.10;;;1.80;;
57023;SDS011;42916;54.346;18.562;2023-01-16T07:11:30;3.90;;;1.50;;
57023;SDS011;42916;54.346;18.562;2023-01-16T07:13:57;5.20;;;1.70;;
57023;SDS011;42916;54.346;18.562;2023-01-16T07:16:43;6.00;;;2.20;;
57023;SDS011;42916;54.346;18.562;2023-01-16T07:19:28;3.90;;;2.10;;
57023;SDS011;42916;54.346;18.562;2023-01-16T07:22:14;3.30;;;1.90;;
57023;SDS011;42916;54.346;18.562;2023-01-16T07:25:07;5.30;;;2.60;;
57023;SDS011;42916;54.346;18.562;2023-01-16T07:27:40;5.10;;;2.10;;
57023;SDS011;42916;54.346;18.562;2023-01-16T07:30:09;6.50;;;2.90;;
57023;SDS011;42916;54.346;18.562;2023-01-16T07:32:37;6.00;;;2.60;;
57023;SDS011;42916;54.346;18.562;2023-01-16T07:35:05;4.80;;;2.60;;
57023;SDS011;42916;54.346;18.562;2023-01-16T07:37:33;9.00;;;2.50;;
57023;SDS011;42916;54.346;18.562;2023-01-16T07:40:00;6.70;;;2.10;;
57023;SDS011;42916;54.346;18.562;2023-01-16T07:42:27;6.30;;;2.60;;
57023;SDS011;42916;54.346;18.562;2023-01-16T07:44:54;6.20;;;2.40;;
57023;SDS011;42916;54.346;18.562;2023-01-16T07:47:20;4.20;;;2.10;;
57023;SDS011;42916;54.346;18.562;2023-01-16T07:49:47;6.90;;;3.00;;
57023;SDS011;42916;54.346;18.562;2023-01-16T07:52:14;6.80;;;2.80;;
57023;SDS011;42916;54.346;18.562;2023-01-16T07:54:43;6.70;;;2.60;;
57023;SDS011;42916;54.346;18.562;2023-01-16T07:57:10;5.70;;;2.60;;
57023;SDS011;42916;54.346;18.562;2023-01-16T07:59:42;5.40;;;2.50;;
57023;SDS011;42916;54.346;18.562;2023-01-16T08:02:09;4.20;;;2.40;;
57023;SDS011;42916;54.346;18.562;2023-01-16T08:04:37;7.70;;;1.90;;
57023;SDS011;42916;54.346;18.562;2023-01-16T08:07:03;6.50;;;2.10;;
57023;SDS011;42916;54.346;18.562;2023-01-16T08:09:30;4.70;;;2.30;;
57023;SDS011;42916;54.346;18.562;2023-01-16T08:11:57;7.00;;;2.70;;
57023;SDS011;42916;54.346;18.562;2023-01-16T08:14:24;6.10;;;2.50;;
57023;SDS011;42916;54.346;18.562;2023-01-16T08:16:51;6.00;;;2.40;;
57023;SDS011;42916;54.346;18.562;2023-01-16T08:19:17;4.90;;;2.50;;
57023;SDS011;42916;54.346;18.562;2023-01-16T08:21:44;6.10;;;3.00;;
57023;SDS011;42916;54.346;18.562;2023-01-16T08:24:11;2.90;;;2.20;;
57023;SDS011;42916;54.346;18.562;2023-01-16T08:26:40;5.30;;;2.00;;
57023;SDS011;42916;54.346;18.562;2023-01-16T08:29:08;6.80;;;2.60;;
57023;SDS011;42916;54.346;18.562;2023-01-16T08:31:35;7.00;;;2.80;;
57023;SDS011;42916;54.346;18.562;2023-01-16T08:34:02;7.40;;;2.40;;
57023;SDS011;42916;54.346;18.562;2023-01-16T08:36:29;8.70;;;3.20;;
57023;SDS011;42916;54.346;18.562;2023-01-16T08:38:56;8.20;;;2.80;;
57023;SDS011;42916;54.346;18.562;2023-01-16T08:41:23;11.80;;;2.90;;
57023;SDS011;42916;54.346;18.562;2023-01-16T08:44:08;6.70;;;2.50;;
57023;SDS011;42916;54.346;18.562;2023-01-16T08:46:59;7.70;;;2.90;;
57023;SDS011;42916;54.346;18.562;2023-01-16T08:49:54;10.00;;;2.70;;
57023;SDS011;42916;54.346;18.562;2023-01-16T08:52:39;7.30;;;3.00;;
57023;SDS011;42916;54.346;18.562;2023-01-16T08:55:07;6.50;;;2.40;;
57023;SDS011;42916;54.346;18.562;2023-01-16T08:57:34;10.10;;;3.70;;
57023;SDS011;42916;54.346;18.562;2023-01-16T09:00:02;8.10;;;3.40;;
57023;SDS011;42916;54.346;18.562;2023-01-16T09:02:30;20.50;;;6.30;;
57023;SDS011;42916;54.346;18.562;2023-01-16T09:05:01;9.50;;;3.80;;
57023;SDS011;42916;54.346;18.562;2023-01-16T09:07:28;7.30;;;3.70;;
57023;SDS011;42916;54.346;18.562;2023-01-16T09:09:55;8.30;;;3.20;;
57023;SDS011;42916;54.346;18.562;2023-01-16T09:12:22;7.20;;;3.60;;
57023;SDS011;42916;54.346;18.562;2023-01-16T09:15:07;7.20;;;3.40;;
57023;SDS011;42916;54.346;18.562;2023-01-16T09:17:34;8.60;;;3.70;;
57023;SDS011;42916;54.346;18.562;2023-01-16T09:20:01;9.40;;;4.20;;
57023;SDS011;42916;54.346;18.562;2023-01-16T09:22:28;6.70;;;3.40;;
57023;SDS011;42916;54.346;18.562;2023-01-16T09:24:55;7.30;;;3.90;;
57023;SDS011;42916;54.346;18.562;2023-01-16T09:27:22;7.70;;;4.20;;
57023;SDS011;42916;54.346;18.562;2023-01-16T09:29:51;10.20;;;5.20;;
57023;SDS011;42916;54.346;18.562;2023-01-16T09:32:18;11.50;;;5.60;;
57023;SDS011;42916;54.346;18.562;2023-01-16T09:34:45;9.70;;;5.10;;
57023;SDS011;42916;54.346;18.562;2023-01-16T09:37:12;8.60;;;4.60;;
57023;SDS011;42916;54.346;18.562;2023-01-16T09:39:39;9.70;;;4.30;;
57023;SDS011;42916;54.346;18.562;2023-01-16T09:44:56;5.40;;;3.90;;
57023;SDS011;42916;54.346;18.562;2023-01-16T09:47:30;5.30;;;3.50;;
57023;SDS011;42916;54.346;18.562;2023-01-16T09:52:47;3.70;;;3.00;;
57023;SDS011;42916;54.346;18.562;2023-01-16T09:55:41;6.80;;;3.90;;
57023;SDS011;42916;54.346;18.562;2023-01-16T09:58:30;7.60;;;3.80;;
57023;SDS011;42916;54.346;18.562;2023-01-16T10:01:08;9.00;;;3.80;;
57023;SDS011;42916;54.346;18.562;2023-01-16T10:03:42;7.50;;;3.50;;
57023;SDS011;42916;54.346;18.562;2023-01-16T10:06:16;7.90;;;3.70;;
57023;SDS011;42916;54.346;18.562;2023-01-16T10:08:53;6.50;;;3.40;;
57023;SDS011;42916;54.346;18.562;2023-01-16T10:11:35;5.30;;;3.40;;
57023;SDS011;42916;54.346;18.562;2023-01-16T10:14:22;5.20;;;3.60;;
57023;SDS011;42916;54.346;18.562;2023-01-16T10:20:01;6.70;;;3.90;;
57023;SDS011;42916;54.346;18.562;2023-01-16T10:31:42;9.10;;;4.90;;
57023;SDS011;42916;54.346;18.562;2023-01-16T10:34:21;8.80;;;5.00;;
57023;SDS011;42916;54.346;18.562;2023-01-16T10:36:53;8.20;;;4.20;;
57023;SDS011;42916;54.346;18.562;2023-01-16T10:39:28;7.10;;;4.10;;
57023;SDS011;42916;54.346;18.562;2023-01-16T10:47:49;8.40;;;4.00;;
57023;SDS011;42916;54.346;18.562;2023-01-16T10:50:36;7.10;;;3.80;;
57023;SDS011;42916;54.346;18.562;2023-01-16T10:53:05;9.30;;;4.60;;
57023;SDS011;42916;54.346;18.562;2023-01-16T10:58:02;7.70;;;3.80;;
57023;SDS011;42916;54.346;18.562;2023-01-16T11:00:33;10.50;;;4.70;;
57023;SDS011;42916;54.346;18.562;2023-01-16T11:03:15;12.90;;;5.10;;
57023;SDS011;42916;54.346;18.562;2023-01-16T11:05:45;13.00;;;5.00;;
57023;SDS011;42916;54.346;18.562;2023-01-16T11:08:16;13.20;;;5.70;;
57023;SDS011;42916;54.346;18.562;2023-01-16T11:10:48;10.30;;;4.60;;
57023;SDS011;42916;54.346;18.562;2023-01-16T11:13:18;9.90;;;5.00;;
57023;SDS011;42916;54.346;18.562;2023-01-16T11:18:55;6.30;;;3.20;;
57023;SDS011;42916;54.346;18.562;2023-01-16T11:21:24;6.60;;;3.60;;
57023;SDS011;42916;54.346;18.562;2023-01-16T11:24:01;8.40;;;3.50;;
57023;SDS011;42916;54.346;18.562;2023-01-16T11:26:37;7.90;;;2.90;;
57023;SDS011;42916;54.346;18.562;2023-01-16T11:29:04;8.40;;;3.20;;
57023;SDS011;42916;54.346;18.562;2023-01-16T11:31:31;5.30;;;2.90;;
57023;SDS011;42916;54.346;18.562;2023-01-16T11:33:59;5.00;;;2.90;;
57023;SDS011;42916;54.346;18.562;2023-01-16T11:36:32;5.90;;;3.30;;
57023;SDS011;42916;54.346;18.562;2023-01-16T11:39:03;6.40;;;3.10;;
57023;SDS011;42916;54.346;18.562;2023-01-16T11:41:33;6.50;;;3.40;;
57023;SDS011;42916;54.346;18.562;2023-01-16T11:44:36;6.60;;;2.90;;
57023;SDS011;42916;54.346;18.562;2023-01-16T11:47:21;6.40;;;3.20;;
57023;SDS011;42916;54.346;18.562;2023-01-16T11:49:50;7.90;;;3.90;;
57023;SDS011;42916;54.346;18.562;2023-01-16T11:52:20;5.10;;;3.50;;
57023;SDS011;42916;54.346;18.562;2023-01-16T11:54:54;6.30;;;3.40;;
57023;SDS011;42916;54.346;18.562;2023-01-16T11:57:36;6.70;;;3.30;;
57023;SDS011;42916;54.346;18.562;2023-01-16T12:00:31;4.40;;;2.70;;
57023;SDS011;42916;54.346;18.562;2023-01-16T12:06:18;8.90;;;4.20;;
57023;SDS011;42916;54.346;18.562;2023-01-16T12:09:05;7.30;;;3.90;;
57023;SDS011;42916;54.346;18.562;2023-01-16T12:22:29;8.30;;;3.90;;
57023;SDS011;42916;54.346;18.562;2023-01-16T12:31:14;9.20;;;4.50;;
57023;SDS011;42916;54.346;18.562;2023-01-16T12:51:08;9.10;;;3.70;;
57023;SDS011;42916;54.346;18.562;2023-01-16T12:56:49;9.00;;;4.20;;
57023;SDS011;42916;54.346;18.562;2023-01-16T12:59:28;7.70;;;4.10;;
57023;SDS011;42916;54.346;18.562;2023-01-16T13:04:53;9.60;;;4.40;;
57023;SDS011;42916;54.346;18.562;2023-01-16T13:07:25;8.00;;;4.60;;
57023;SDS011;42916;54.346;18.562;2023-01-16T13:12:56;12.20;;;5.00;;
57023;SDS011;42916;54.346;18.562;2023-01-16T13:15:46;12.20;;;4.80;;
57023;SDS011;42916;54.346;18.562;2023-01-16T13:18:21;9.30;;;4.30;;
57023;SDS011;42916;54.346;18.562;2023-01-16T13:20:57;10.70;;;5.10;;
57023;SDS011;42916;54.346;18.562;2023-01-16T13:23:31;13.30;;;5.40;;
57023;SDS011;42916;54.346;18.562;2023-01-16T13:26:00;11.00;;;5.10;;
57023;SDS011;42916;54.346;18.562;2023-01-16T13:28:45;10.30;;;4.80;;
57023;SDS011;42916;54.346;18.562;2023-01-16T13:31:42;10.00;;;4.90;;
57023;SDS011;42916;54.346;18.562;2023-01-16T13:34:18;10.40;;;4.10;;
57023;SDS011;42916;54.346;18.562;2023-01-16T13:42:13;8.30;;;4.00;;
57023;SDS011;42916;54.346;18.562;2023-01-16T13:44:43;8.30;;;4.00;;
57023;SDS011;42916;54.346;18.562;2023-01-16T13:47:35;9.50;;;4.10;;
57023;SDS011;42916;54.346;18.562;2023-01-16T13:52:56;10.90;;;4.50;;
57023;SDS011;42916;54.346;18.562;2023-01-16T13:55:32;11.00;;;5.20;;
57023;SDS011;42916;54.346;18.562;2023-01-16T13:58:15;9.70;;;4.70;;
57023;SDS011;42916;54.346;18.562;2023-01-16T14:00:46;9.30;;;4.10;;
57023;SDS011;42916;54.346;18.562;2023-01-16T14:03:23;10.10;;;4.70;;
57023;SDS011;42916;54.346;18.562;2023-01-16T14:06:14;13.10;;;5.50;;
57023;SDS011;42916;54.346;18.562;2023-01-16T14:08:50;11.70;;;4.80;;
57023;SDS011;42916;54.346;18.562;2023-01-16T14:14:22;9.80;;;5.40;;
57023;SDS011;42916;54.346;18.562;2023-01-16T14:17:18;13.00;;;6.50;;
57023;SDS011;42916;54.346;18.562;2023-01-16T14:22:23;13.40;;;6.90;;
57023;SDS011;42916;54.346;18.562;2023-01-16T14:24:53;15.30;;;7.10;;
57023;SDS011;42916;54.346;18.562;2023-01-16T14:27:24;17.30;;;7.10;;
57023;SDS011;42916;54.346;18.562;2023-01-16T14:29:57;21.90;;;7.70;;
57023;SDS011;42916;54.346;18.562;2023-01-16T14:32:27;12.20;;;7.80;;
57023;SDS011;42916;54.346;18.562;2023-01-16T14:37:39;17.60;;;8.30;;
57023;SDS011;42916;54.346;18.562;2023-01-16T14:45:30;15.90;;;8.10;;
57023;SDS011;42916;54.346;18.562;2023-01-16T14:48:09;17.10;;;8.10;;
57023;SDS011;42916;54.346;18.562;2023-01-16T14:50:56;18.50;;;8.80;;
57023;SDS011;42916;54.346;18.562;2023-01-16T14:53:47;17.80;;;8.90;;
57023;SDS011;42916;54.346;18.562;2023-01-16T15:00:08;20.60;;;8.90;;
57023;SDS011;42916;54.346;18.562;2023-01-16T15:02:44;22.30;;;10.20;;
57023;SDS011;42916;54.346;18.562;2023-01-16T15:05:35;23.40;;;10.80;;
57023;SDS011;42916;54.346;18.562;2023-01-16T15:08:21;23.10;;;10.30;;
57023;SDS011;42916;54.346;18.562;2023-01-16T15:10:52;18.50;;;9.60;;
57023;SDS011;42916;54.346;18.562;2023-01-16T15:13:25;18.50;;;9.70;;
57023;SDS011;42916;54.346;18.562;2023-01-16T15:16:18;21.60;;;10.90;;
57023;SDS011;42916;54.346;18.562;2023-01-16T15:19:16;20.30;;;10.40;;
57023;SDS011;42916;54.346;18.562;2023-01-16T15:22:19;21.60;;;11.10;;
57023;SDS011;42916;54.346;18.562;2023-01-16T15:24:57;21.00;;;10.70;;
57023;SDS011;42916;54.346;18.562;2023-01-16T15:27:32;19.80;;;11.00;;
57023;SDS011;42916;54.346;18.562;2023-01-16T15:30:05;21.00;;;10.10;;
57023;SDS011;42916;54.346;18.562;2023-01-16T15:32:53;17.80;;;10.30;;
57023;SDS011;42916;54.346;18.562;2023-01-16T15:35:44;21.10;;;10.60;;
57023;SDS011;42916;54.346;18.562;2023-01-16T15:38:20;21.20;;;10.60;;
57023;SDS011;42916;54.346;18.562;2023-01-16T15:40:48;26.50;;;11.40;;
57023;SDS011;42916;54.346;18.562;2023-01-16T15:49:11;21.80;;;12.80;;
57023;SDS011;42916;54.346;18.562;2023-01-16T15:51:48;24.10;;;12.40;;
57023;SDS011;42916;54.346;18.562;2023-01-16T15:54:16;28.70;;;14.70;;
57023;SDS011;42916;54.346;18.562;2023-01-16T15:56:45;25.60;;;14.30;;
57023;SDS011;42916;54.346;18.562;2023-01-16T16:01:49;27.80;;;13.50;;
57023;SDS011;42916;54.346;18.562;2023-01-16T16:04:16;25.10;;;13.00;;
57023;SDS011;42916;54.346;18.562;2023-01-16T16:06:43;27.20;;;14.50;;
57023;SDS011;42916;54.346;18.562;2023-01-16T16:09:29;23.60;;;13.50;;
57023;SDS011;42916;54.346;18.562;2023-01-16T16:11:56;22.00;;;13.50;;
57023;SDS011;42916;54.346;18.562;2023-01-16T16:14:30;28.80;;;14.80;;
57023;SDS011;42916;54.346;18.562;2023-01-16T16:20:27;34.30;;;14.90;;
57023;SDS011;42916;54.346;18.562;2023-01-16T16:23:24;24.70;;;13.70;;
57023;SDS011;42916;54.346;18.562;2023-01-16T16:26:01;29.80;;;14.80;;
57023;SDS011;42916;54.346;18.562;2023-01-16T16:30:59;25.90;;;13.80;;
57023;SDS011;42916;54.346;18.562;2023-01-16T16:33:28;30.40;;;15.30;;
57023;SDS011;42916;54.346;18.562;2023-01-16T16:35:57;30.10;;;14.10;;
57023;SDS011;42916;54.346;18.562;2023-01-16T16:38:27;29.60;;;15.00;;
57023;SDS011;42916;54.346;18.562;2023-01-16T16:41:08;28.00;;;14.70;;
57023;SDS011;42916;54.346;18.562;2023-01-16T16:51:35;32.30;;;14.20;;
57023;SDS011;42916;54.346;18.562;2023-01-16T16:54:06;30.30;;;13.90;;
57023;SDS011;42916;54.346;18.562;2023-01-16T16:56:37;30.70;;;14.90;;
57023;SDS011;42916;54.346;18.562;2023-01-16T16:59:13;31.00;;;14.80;;
57023;SDS011;42916;54.346;18.562;2023-01-16T17:01:44;28.20;;;14.60;;
57023;SDS011;42916;54.346;18.562;2023-01-16T17:04:14;25.00;;;14.20;;
57023;SDS011;42916;54.346;18.562;2023-01-16T17:06:44;29.30;;;12.90;;
57023;SDS011;42916;54.346;18.562;2023-01-16T17:09:13;24.70;;;12.90;;
57023;SDS011;42916;54.346;18.562;2023-01-16T17:11:44;24.10;;;11.70;;
57023;SDS011;42916;54.346;18.562;2023-01-16T17:14:11;25.00;;;13.80;;
57023;SDS011;42916;54.346;18.562;2023-01-16T17:16:38;28.90;;;13.90;;
57023;SDS011;42916;54.346;18.562;2023-01-16T17:21:45;30.50;;;13.80;;
57023;SDS011;42916;54.346;18.562;2023-01-16T17:24:15;26.90;;;13.30;;
57023;SDS011;42916;54.346;18.562;2023-01-16T17:26:46;29.60;;;13.70;;
57023;SDS011;42916;54.346;18.562;2023-01-16T17:29:13;26.80;;;13.60;;
57023;SDS011;42916;54.346;18.562;2023-01-16T17:31:44;25.70;;;12.60;;
57023;SDS011;42916;54.346;18.562;2023-01-16T17:34:12;29.10;;;13.70;;
57023;SDS011;42916;54.346;18.562;2023-01-16T17:36:44;25.30;;;12.60;;
57023;SDS011;42916;54.346;18.562;2023-01-16T17:39:12;30.10;;;15.50;;
57023;SDS011;42916;54.346;18.562;2023-01-16T17:41:39;31.70;;;14.80;;
57023;SDS011;42916;54.346;18.562;2023-01-16T17:44:16;30.40;;;15.80;;
57023;SDS011;42916;54.346;18.562;2023-01-16T17:47:04;29.30;;;15.80;;
57023;SDS011;42916;54.346;18.562;2023-01-16T17:49:32;31.70;;;15.50;;
57023;SDS011;42916;54.346;18.562;2023-01-16T17:52:19;25.80;;;14.00;;
57023;SDS011;42916;54.346;18.562;2023-01-16T17:54:46;27.20;;;14.10;;
57023;SDS011;42916;54.346;18.562;2023-01-16T17:57:32;28.00;;;14.60;;